Time;durP1;ratioP1;P1;durP2;ratioP2;P2;SDS_P1;SDS_P2;PMS_P1;PMS_P2;Temp;Humidity;BMP_temperature;BMP_pressure;BME280_temperature;BME280_humidity;BME280_pressure;Samples;Min_cycle;Max_cycle;Signal;HPM_P1;HPM_P2
2023/04/18 00:02:14;;;;;;;10.27;4.20;;;8.10;99.90;;;;;;5024260;28;20235;-87
2023/04/18 00:04:40;;;;;;;6.53;4.90;;;8.10;99.90;;;;;;5022465;28;20929;-88
2023/04/18 00:07:05;;;;;;;8.57;3.33;;;8.10;99.90;;;;;;5038467;28;20226;-89
2023/04/18 00:09:31;;;;;;;6.43;3.60;;;8.10;99.90;;;;;;5024912;28;20654;-88
2023/04/18 00:11:57;;;;;;;8.57;4.43;;;8.20;99.90;;;;;;5023660;28;20246;-88
2023/04/18 00:14:23;;;;;;;3.87;3.57;;;8.30;99.90;;;;;;5024583;28;20843;-88
2023/04/18 00:16:50;;;;;;;5.03;3.10;;;8.20;99.90;;;;;;5029238;28;20214;-88
2023/04/18 00:19:17;;;;;;;4.13;3.70;;;8.30;99.90;;;;;;5021660;28;20226;-89
2023/04/18 00:21:43;;;;;;;2.53;2.33;;;8.30;99.90;;;;;;5021629;28;20652;-88
2023/04/18 00:24:10;;;;;;;6.13;5.13;;;8.30;99.90;;;;;;5038449;28;20191;-88
2023/04/18 00:26:36;;;;;;;5.50;3.93;;;8.30;99.90;;;;;;5021290;28;20269;-89
2023/04/18 00:29:02;;;;;;;8.20;2.77;;;8.30;99.90;;;;;;5021812;28;20221;-88
2023/04/18 00:31:28;;;;;;;2.70;2.50;;;8.40;99.90;;;;;;5020548;28;20315;-88
2023/04/18 00:33:53;;;;;;;6.37;4.00;;;8.40;99.90;;;;;;5021925;28;20657;-89
2023/04/18 00:36:19;;;;;;;4.47;4.07;;;8.40;99.90;;;;;;5005947;28;20197;-89
2023/04/18 00:38:45;;;;;;;3.40;3.20;;;8.50;99.90;;;;;;5037997;28;21353;-89
2023/04/18 00:41:11;;;;;;;2.33;2.13;;;8.60;99.90;;;;;;5036650;28;20521;-88
2023/04/18 00:43:36;;;;;;;4.17;2.17;;;8.60;99.90;;;;;;5005423;28;20264;-90
2023/04/18 00:46:02;;;;;;;1.93;1.83;;;8.60;99.90;;;;;;5024369;28;20227;-87
2023/04/18 00:48:29;;;;;;;3.97;3.07;;;8.60;99.90;;;;;;5024125;28;20210;-88
2023/04/18 00:50:56;;;;;;;2.57;2.37;;;8.60;99.90;;;;;;5023410;28;20269;-88
2023/04/18 00:53:21;;;;;;;3.63;2.30;;;8.60;99.90;;;;;;5023011;28;20333;-88
2023/04/18 00:55:47;;;;;;;2.10;2.00;;;8.60;99.90;;;;;;5023607;28;20349;-87
2023/04/18 00:58:13;;;;;;;3.27;3.00;;;8.60;99.90;;;;;;5023429;28;20218;-88
2023/04/18 01:00:41;;;;;;;3.60;3.07;;;8.60;99.90;;;;;;5040495;28;20301;-88
2023/04/18 01:03:07;;;;;;;3.73;2.37;;;8.50;99.90;;;;;;5003967;28;20215;-89
2023/04/18 01:05:35;;;;;;;2.93;2.67;;;8.50;99.90;;;;;;4987063;28;20230;-88
2023/04/18 01:08:01;;;;;;;2.33;1.90;;;8.50;99.90;;;;;;5004170;28;20985;-90
2023/04/18 01:10:28;;;;;;;1.57;1.47;;;8.50;99.90;;;;;;5002238;28;20408;-88
2023/04/18 01:13:11;;;;;;;1.83;1.73;;;8.50;99.90;;;;;;5002348;28;20191;-89
2023/04/18 01:15:39;;;;;;;2.20;1.77;;;8.40;99.90;;;;;;5002714;28;20187;-87
2023/04/18 01:18:06;;;;;;;2.97;2.60;;;8.40;99.90;;;;;;5001305;28;20222;-91
2023/04/18 01:20:34;;;;;;;2.57;2.37;;;8.40;99.90;;;;;;5001442;28;20269;-91
2023/04/18 01:23:00;;;;;;;4.03;3.13;;;8.30;99.90;;;;;;5001881;28;20219;-91
2023/04/18 01:25:25;;;;;;;2.87;2.33;;;8.30;99.90;;;;;;5006852;28;20222;-88
2023/04/18 01:27:53;;;;;;;0.97;0.87;;;8.30;99.90;;;;;;5021315;28;20201;-82
2023/04/18 01:30:19;;;;;;;2.53;2.33;;;8.30;99.90;;;;;;5023421;28;20714;-84
2023/04/18 01:32:44;;;;;;;2.03;1.43;;;8.20;99.90;;;;;;5007922;28;20254;-84
2023/04/18 01:35:10;;;;;;;1.70;1.57;;;8.20;99.90;;;;;;5022847;28;20317;-83
2023/04/18 01:37:36;;;;;;;1.30;1.23;;;8.20;99.90;;;;;;5022241;28;20219;-86
2023/04/18 01:40:02;;;;;;;1.47;1.37;;;8.20;99.90;;;;;;5008509;28;20230;-81
2023/04/18 01:42:29;;;;;;;3.60;2.30;;;8.10;99.90;;;;;;5024594;28;20203;-82
2023/04/18 01:44:54;;;;;;;1.77;1.67;;;8.10;99.90;;;;;;5008755;28;20222;-83
2023/04/18 01:47:20;;;;;;;1.27;1.27;;;8.10;99.90;;;;;;5023771;28;20227;-81
2023/04/18 01:49:47;;;;;;;2.27;2.07;;;8.10;99.90;;;;;;5008662;28;20808;-81
2023/04/18 01:52:13;;;;;;;2.57;1.40;;;8.10;99.90;;;;;;5023783;28;20219;-82
2023/04/18 01:54:39;;;;;;;2.30;2.20;;;8.10;99.90;;;;;;5009183;28;20183;-80
2023/04/18 01:57:05;;;;;;;12.70;2.43;;;8.10;99.90;;;;;;5008274;28;20269;-83
2023/04/18 01:59:31;;;;;;;1.37;1.27;;;8.10;99.90;;;;;;5023641;28;20310;-83
2023/04/18 02:01:57;;;;;;;7.57;2.30;;;8.10;99.90;;;;;;5023722;28;20305;-83
2023/04/18 02:04:23;;;;;;;2.30;1.93;;;8.10;99.90;;;;;;5023076;28;20299;-84
2023/04/18 02:06:49;;;;;;;2.07;1.87;;;8.10;99.90;;;;;;5024208;28;20274;-82
2023/04/18 02:09:15;;;;;;;2.13;1.17;;;8.00;99.90;;;;;;5009127;28;20183;-83
2023/04/18 02:11:40;;;;;;;2.10;0.97;;;8.00;99.90;;;;;;5023813;28;20261;-82
2023/04/18 02:14:06;;;;;;;1.83;1.73;;;8.00;99.90;;;;;;5008547;28;20229;-82
2023/04/18 02:16:33;;;;;;;3.67;2.23;;;7.90;99.90;;;;;;5023636;28;20215;-84
2023/04/18 02:19:00;;;;;;;2.27;2.13;;;7.90;99.90;;;;;;5007304;28;20207;-81
2023/04/18 02:21:26;;;;;;;1.50;1.40;;;7.80;99.90;;;;;;5024317;28;20184;-82
2023/04/18 02:23:51;;;;;;;1.97;1.87;;;7.80;99.90;;;;;;5008488;28;20277;-83
2023/04/18 02:26:17;;;;;;;2.23;1.77;;;7.80;99.90;;;;;;5023507;28;20271;-82
2023/04/18 02:28:43;;;;;;;2.47;1.20;;;7.80;99.90;;;;;;5023466;28;20215;-83
2023/04/18 02:31:13;;;;;;;2.60;2.07;;;7.80;99.90;;;;;;5023311;28;20235;-82
2023/04/18 02:33:45;;;;;;;2.90;1.60;;;7.80;99.90;;;;;;5024342;28;20237;-82
2023/04/18 02:36:14;;;;;;;3.33;2.17;;;7.80;99.90;;;;;;5007423;28;20223;-83
2023/04/18 02:38:39;;;;;;;0.93;0.90;;;7.80;99.90;;;;;;5008516;28;20215;-81
2023/04/18 02:41:05;;;;;;;1.37;1.27;;;7.80;99.90;;;;;;5023414;28;20227;-81
2023/04/18 02:43:32;;;;;;;2.60;1.67;;;7.80;99.90;;;;;;5007851;28;20281;-83
2023/04/18 02:45:57;;;;;;;3.20;2.30;;;7.80;99.90;;;;;;5023273;28;20188;-81
2023/04/18 02:48:23;;;;;;;1.83;1.70;;;7.80;99.90;;;;;;5007092;28;20240;-82
2023/04/18 02:50:49;;;;;;;3.90;1.60;;;7.70;99.90;;;;;;5011575;28;20223;-82
2023/04/18 02:53:15;;;;;;;1.63;1.53;;;7.70;99.90;;;;;;5026894;28;20226;-81
2023/04/18 02:55:41;;;;;;;2.67;1.43;;;7.60;99.90;;;;;;5011240;28;20222;-81
2023/04/18 02:58:08;;;;;;;2.97;1.97;;;7.60;99.90;;;;;;5011488;28;20219;-82
2023/04/18 03:00:34;;;;;;;5.67;1.70;;;7.60;99.90;;;;;;5026880;28;20191;-81
2023/04/18 03:03:00;;;;;;;1.87;1.60;;;7.60;99.90;;;;;;5011079;28;20255;-82
2023/04/18 03:05:26;;;;;;;5.60;1.60;;;7.60;99.90;;;;;;5026614;28;20247;-83
2023/04/18 03:07:51;;;;;;;1.60;1.50;;;7.60;99.90;;;;;;5026245;28;20799;-82
2023/04/18 03:10:17;;;;;;;2.83;2.07;;;7.60;99.90;;;;;;5011240;28;20273;-82
2023/04/18 03:12:43;;;;;;;3.70;2.60;;;7.60;99.90;;;;;;5025933;28;20629;-82
2023/04/18 03:15:10;;;;;;;3.27;1.70;;;7.50;99.90;;;;;;5026898;28;20241;-81
2023/04/18 03:17:35;;;;;;;1.50;1.13;;;7.50;99.90;;;;;;5026156;28;20225;-82
2023/04/18 03:20:01;;;;;;;2.57;2.37;;;7.50;99.90;;;;;;5026479;28;20223;-82
2023/04/18 03:22:27;;;;;;;1.73;1.40;;;7.50;99.90;;;;;;5026016;28;20872;-82
2023/04/18 03:24:53;;;;;;;2.30;2.20;;;7.50;99.90;;;;;;5026182;28;20195;-81
2023/04/18 03:27:18;;;;;;;1.83;1.63;;;7.60;99.90;;;;;;5026465;28;20194;-84
2023/04/18 03:29:44;;;;;;;2.00;1.67;;;7.60;99.90;;;;;;5010708;28;20706;-81
2023/04/18 03:32:10;;;;;;;1.37;1.20;;;7.60;99.90;;;;;;5025764;28;20247;-81
2023/04/18 03:34:36;;;;;;;3.97;1.57;;;7.60;99.90;;;;;;5025725;28;20688;-83
2023/04/18 03:37:01;;;;;;;1.47;0.93;;;7.60;99.90;;;;;;5025824;28;21834;-82
2023/04/18 03:39:27;;;;;;;2.87;2.17;;;7.60;99.90;;;;;;5026227;28;20653;-84
2023/04/18 03:41:53;;;;;;;2.27;2.17;;;7.70;99.90;;;;;;5010470;28;20227;-81
2023/04/18 03:44:18;;;;;;;4.17;2.37;;;7.70;99.90;;;;;;5010462;28;20365;-81
2023/04/18 03:46:44;;;;;;;2.40;2.30;;;7.80;99.90;;;;;;5010401;28;20229;-81
2023/04/18 03:49:10;;;;;;;4.20;2.43;;;7.80;99.90;;;;;;5010054;28;20294;-81
2023/04/18 03:51:42;;;;;;;1.60;1.50;;;7.90;99.90;;;;;;5025296;28;20243;-82
2023/04/18 03:54:08;;;;;;;1.70;1.60;;;7.90;99.90;;;;;;5009807;28;20195;-81
2023/04/18 03:56:34;;;;;;;1.97;1.80;;;8.00;99.90;;;;;;5024715;28;20363;-81
2023/04/18 03:59:00;;;;;;;6.00;3.50;;;8.00;99.90;;;;;;5009296;28;20309;-81
2023/04/18 04:01:26;;;;;;;7.17;3.43;;;8.00;99.90;;;;;;5009259;28;20466;-83
2023/04/18 04:03:52;;;;;;;2.37;1.90;;;8.00;99.90;;;;;;5010161;28;20183;-82
2023/04/18 04:06:18;;;;;;;3.10;2.40;;;8.10;99.90;;;;;;5010555;28;20187;-81
2023/04/18 04:08:43;;;;;;;2.80;1.77;;;8.10;99.90;;;;;;5025476;28;20239;-82
2023/04/18 04:11:09;;;;;;;3.47;2.37;;;8.10;99.90;;;;;;5009509;28;20226;-83
2023/04/18 04:13:35;;;;;;;5.37;3.43;;;8.10;99.90;;;;;;5008587;28;20222;-82
2023/04/18 04:16:01;;;;;;;2.13;2.03;;;8.10;99.90;;;;;;5024365;28;20180;-80
2023/04/18 04:18:30;;;;;;;4.13;2.63;;;8.10;99.90;;;;;;5009223;28;20249;-81
2023/04/18 04:20:59;;;;;;;3.67;3.27;;;8.10;99.90;;;;;;5024144;28;20234;-83
2023/04/18 04:23:25;;;;;;;3.80;2.63;;;8.10;99.90;;;;;;5009044;28;20223;-82
2023/04/18 04:25:52;;;;;;;2.17;1.93;;;8.10;99.90;;;;;;5009142;28;20219;-82
2023/04/18 04:28:22;;;;;;;3.60;3.30;;;8.10;99.90;;;;;;5024174;28;20736;-82
2023/04/18 04:30:49;;;;;;;3.77;3.43;;;8.20;99.90;;;;;;5024006;28;20297;-82
2023/04/18 04:33:19;;;;;;;4.47;2.37;;;8.20;99.90;;;;;;5025226;28;20184;-82
2023/04/18 04:35:46;;;;;;;2.00;1.87;;;8.20;99.90;;;;;;5024656;28;20255;-82
2023/04/18 04:38:14;;;;;;;3.47;3.17;;;8.20;99.90;;;;;;5024640;28;20215;-81
2023/04/18 04:40:40;;;;;;;6.73;3.73;;;8.20;99.90;;;;;;5024602;28;20239;-83
2023/04/18 04:43:06;;;;;;;2.90;2.63;;;8.20;99.90;;;;;;5024107;28;20672;-81
2023/04/18 04:45:32;;;;;;;10.77;2.60;;;8.20;99.90;;;;;;5009633;28;20187;-83
2023/04/18 04:47:58;;;;;;;3.53;2.43;;;8.20;99.90;;;;;;5024456;28;20626;-81
2023/04/18 04:50:24;;;;;;;5.93;2.67;;;8.10;99.90;;;;;;5024319;28;20661;-80
2023/04/18 04:52:50;;;;;;;3.23;2.67;;;8.10;99.90;;;;;;5024086;28;20223;-81
2023/04/18 04:55:17;;;;;;;2.83;2.20;;;8.10;99.90;;;;;;5009052;28;20692;-81
2023/04/18 04:57:43;;;;;;;2.70;2.50;;;8.10;99.90;;;;;;5024214;28;20179;-81
2023/04/18 05:00:10;;;;;;;2.47;2.33;;;8.10;99.90;;;;;;5009344;28;20196;-82
2023/04/18 05:02:36;;;;;;;2.70;2.50;;;8.10;99.90;;;;;;5008474;28;20247;-81
2023/04/18 05:05:01;;;;;;;2.30;2.17;;;8.10;99.90;;;;;;5024062;28;20534;-84
2023/04/18 05:07:27;;;;;;;2.17;2.03;;;8.00;99.90;;;;;;5023946;28;20569;-81
2023/04/18 05:09:53;;;;;;;2.23;2.03;;;8.00;99.90;;;;;;5024110;28;20257;-83
2023/04/18 05:12:19;;;;;;;2.07;1.97;;;8.10;99.90;;;;;;5024114;28;20184;-82
2023/04/18 05:14:45;;;;;;;4.30;2.43;;;8.10;99.90;;;;;;5024431;28;20222;-81
2023/04/18 05:17:10;;;;;;;8.43;3.17;;;8.10;99.90;;;;;;5008982;28;20231;-81
2023/04/18 05:19:36;;;;;;;5.00;3.33;;;8.10;99.90;;;;;;5024046;28;20692;-81
2023/04/18 05:22:02;;;;;;;3.67;2.67;;;8.10;99.90;;;;;;5008801;28;20227;-82
2023/04/18 05:24:28;;;;;;;3.57;3.27;;;8.20;99.90;;;;;;5024160;28;20744;-81
2023/04/18 05:26:54;;;;;;;9.33;2.90;;;8.20;99.90;;;;;;5023986;28;20688;-81
2023/04/18 05:29:20;;;;;;;5.23;2.77;;;8.20;99.90;;;;;;5008267;28;20219;-83
2023/04/18 05:31:46;;;;;;;4.77;3.40;;;8.20;99.90;;;;;;5008705;28;20600;-82
2023/04/18 05:34:13;;;;;;;4.60;2.73;;;8.30;99.90;;;;;;5023535;28;20223;-83
2023/04/18 05:36:39;;;;;;;1.53;1.43;;;8.30;99.90;;;;;;5024466;28;20273;-83
2023/04/18 05:39:04;;;;;;;1.77;1.67;;;8.30;99.90;;;;;;5008614;28;20230;-81
2023/04/18 05:41:30;;;;;;;4.50;2.80;;;8.40;99.90;;;;;;5023494;28;20234;-81
2023/04/18 05:43:56;;;;;;;4.53;3.60;;;8.40;99.90;;;;;;5023816;28;20735;-80
2023/04/18 05:46:22;;;;;;;2.57;2.17;;;8.40;99.90;;;;;;5023717;28;20215;-81
2023/04/18 05:48:47;;;;;;;2.50;2.30;;;8.40;99.90;;;;;;5008550;28;20183;-82
2023/04/18 05:51:13;;;;;;;1.83;1.27;;;8.50;99.90;;;;;;5009226;28;20239;-82
2023/04/18 05:53:39;;;;;;;2.57;2.37;;;8.50;99.90;;;;;;5023826;28;20243;-82
2023/04/18 05:56:05;;;;;;;3.50;2.13;;;8.60;99.90;;;;;;5023935;28;20302;-82
2023/04/18 05:58:31;;;;;;;3.40;2.53;;;8.70;99.90;;;;;;5008784;28;20277;-83
2023/04/18 06:00:57;;;;;;;6.40;3.40;;;8.90;99.90;;;;;;5023531;28;20180;-84
2023/04/18 06:03:23;;;;;;;2.97;2.50;;;9.20;99.90;;;;;;5008755;28;20214;-84
2023/04/18 06:05:49;;;;;;;2.50;2.10;;;9.80;99.90;;;;;;5008500;28;20239;-81
2023/04/18 06:08:15;;;;;;;10.10;4.43;;;11.20;99.90;;;;;;5008500;28;20226;-83
2023/04/18 06:10:40;;;;;;;3.40;2.27;;;12.20;99.90;;;;;;5023656;28;20231;-82
2023/04/18 06:13:06;;;;;;;4.60;3.80;;;12.40;99.90;;;;;;5008880;28;20215;-84
2023/04/18 06:15:33;;;;;;;4.10;2.70;;;12.10;99.90;;;;;;5024326;28;20203;-81
2023/04/18 06:18:02;;;;;;;2.93;2.63;;;11.70;99.90;;;;;;5024120;28;20218;-85
2023/04/18 06:20:27;;;;;;;4.40;2.97;;;10.90;99.90;;;;;;5008899;28;20219;-82
2023/04/18 06:22:53;;;;;;;3.40;3.10;;;10.80;99.90;;;;;;5009192;28;20225;-81
2023/04/18 06:25:19;;;;;;;3.47;2.93;;;11.70;99.90;;;;;;5027273;28;20297;-80
2023/04/18 06:27:45;;;;;;;7.80;3.70;;;12.30;99.90;;;;;;5027212;28;20187;-82
2023/04/18 06:30:11;;;;;;;4.23;2.90;;;13.10;99.90;;;;;;5027050;28;20304;-83
2023/04/18 06:32:37;;;;;;;6.50;3.10;;;13.50;99.90;;;;;;5027260;28;20297;-81
2023/04/18 06:35:03;;;;;;;3.47;2.80;;;13.10;99.90;;;;;;5011342;28;20306;-82
2023/04/18 06:37:29;;;;;;;8.53;3.43;;;12.60;99.90;;;;;;5027223;28;20219;-81
2023/04/18 06:39:55;;;;;;;8.13;3.47;;;12.60;99.90;;;;;;5027142;28;20786;-82
2023/04/18 06:42:20;;;;;;;5.97;2.60;;;12.10;99.90;;;;;;5027610;28;20616;-81
2023/04/18 06:44:46;;;;;;;3.57;2.67;;;11.50;99.90;;;;;;5011543;28;20302;-82
2023/04/18 06:47:12;;;;;;;2.80;2.17;;;11.30;99.90;;;;;;5026811;28;20219;-81
2023/04/18 06:49:37;;;;;;;2.47;2.27;;;11.30;99.90;;;;;;5011188;28;20223;-84
2023/04/18 06:52:03;;;;;;;3.33;3.00;;;11.70;99.90;;;;;;5011690;28;20230;-81
2023/04/18 06:54:29;;;;;;;1.60;1.50;;;12.20;99.90;;;;;;5027367;28;20245;-81
2023/04/18 06:56:55;;;;;;;3.10;2.33;;;12.30;99.90;;;;;;5026723;28;20221;-81
2023/04/18 06:59:20;;;;;;;4.17;2.53;;;11.80;99.90;;;;;;5026508;28;20310;-81
2023/04/18 07:01:46;;;;;;;4.57;1.93;;;11.80;99.90;;;;;;5011089;28;20311;-82
2023/04/18 07:04:12;;;;;;;8.10;3.80;;;11.90;99.90;;;;;;5027533;28;20715;-82
2023/04/18 07:06:38;;;;;;;2.83;1.87;;;12.00;99.90;;;;;;5011406;28;20175;-82
2023/04/18 07:09:04;;;;;;;7.17;2.87;;;12.10;99.90;;;;;;5026571;28;20262;-84
2023/04/18 07:11:29;;;;;;;4.13;1.80;;;12.40;99.90;;;;;;5026433;28;20293;-81
2023/04/18 07:13:55;;;;;;;3.00;2.73;;;12.20;99.90;;;;;;5011184;28;20239;-82
2023/04/18 07:16:23;;;;;;;6.40;3.23;;;12.10;99.90;;;;;;5026101;28;20302;-84
2023/04/18 07:18:50;;;;;;;2.80;2.37;;;12.10;99.90;;;;;;5011050;28;20274;-82
2023/04/18 07:21:17;;;;;;;2.77;2.30;;;12.40;99.90;;;;;;5011849;28;20218;-82
2023/04/18 07:23:43;;;;;;;4.33;3.00;;;12.30;99.90;;;;;;5026050;28;20227;-82
2023/04/18 07:26:10;;;;;;;2.13;1.93;;;12.10;99.90;;;;;;5011351;28;20779;-84
2023/04/18 07:28:36;;;;;;;4.30;2.87;;;12.00;99.90;;;;;;5026499;28;20280;-82
2023/04/18 07:31:02;;;;;;;4.07;3.23;;;12.00;99.90;;;;;;5010471;28;20333;-82
2023/04/18 07:33:30;;;;;;;5.50;2.77;;;12.00;99.90;;;;;;5026725;28;20758;-83
2023/04/18 07:35:56;;;;;;;4.77;3.10;;;12.00;99.90;;;;;;5025336;28;20672;-82
2023/04/18 07:38:22;;;;;;;2.43;2.20;;;12.40;99.90;;;;;;5010742;28;20226;-82
2023/04/18 07:40:56;;;;;;;7.03;2.40;;;12.30;99.90;;;;;;5025985;28;20220;-80
2023/04/18 07:43:22;;;;;;;5.20;2.07;;;12.70;99.90;;;;;;5025949;28;20219;-83
2023/04/18 07:45:48;;;;;;;2.43;2.23;;;12.70;99.90;;;;;;5010123;28;20671;-83
2023/04/18 07:48:13;;;;;;;4.30;2.07;;;12.70;99.90;;;;;;5026355;28;20218;-84
2023/04/18 07:50:39;;;;;;;3.97;2.37;;;12.50;99.90;;;;;;5026044;28;20250;-85
2023/04/18 07:53:05;;;;;;;3.13;2.20;;;12.30;99.90;;;;;;5026552;28;20625;-85
2023/04/18 07:55:31;;;;;;;3.17;1.83;;;12.60;99.90;;;;;;5026472;28;20830;-84
2023/04/18 07:57:56;;;;;;;2.43;2.23;;;12.60;99.90;;;;;;5026427;28;20211;-86
2023/04/18 08:00:23;;;;;;;2.90;1.93;;;12.60;99.90;;;;;;5011979;28;20191;-84
2023/04/18 08:02:49;;;;;;;3.80;1.80;;;12.60;99.90;;;;;;5026116;28;20756;-86
2023/04/18 08:05:15;;;;;;;2.53;2.33;;;12.40;99.90;;;;;;5010132;28;20299;-84
2023/04/18 08:07:40;;;;;;;2.23;2.10;;;12.60;99.90;;;;;;5024850;28;20289;-84
2023/04/18 08:10:06;;;;;;;2.63;2.40;;;12.50;99.90;;;;;;5009952;28;20317;-84
2023/04/18 08:12:32;;;;;;;3.57;2.70;;;12.80;99.90;;;;;;5025364;28;20207;-86
2023/04/18 08:14:58;;;;;;;2.67;2.40;;;13.00;99.90;;;;;;5025357;28;20231;-83
2023/04/18 08:17:24;;;;;;;5.77;2.90;;;13.10;99.90;;;;;;5010103;28;20223;-88
2023/04/18 08:19:49;;;;;;;3.20;2.67;;;12.90;99.90;;;;;;5010519;28;20250;-83
2023/04/18 08:22:15;;;;;;;2.83;2.33;;;13.00;99.90;;;;;;5026117;28;20215;-85
2023/04/18 08:24:41;;;;;;;4.20;3.33;;;12.80;99.90;;;;;;5025981;28;20279;-84
2023/04/18 08:27:06;;;;;;;3.93;2.17;;;12.90;99.90;;;;;;5024681;28;20215;-87
2023/04/18 08:29:32;;;;;;;3.03;2.77;;;12.80;99.90;;;;;;5009499;28;20223;-84
2023/04/18 08:31:58;;;;;;;2.87;1.77;;;13.00;99.90;;;;;;5021912;28;20743;-88
2023/04/18 08:34:24;;;;;;;3.20;2.90;;;13.10;99.90;;;;;;5009299;28;20227;-84
2023/04/18 08:36:50;;;;;;;3.10;2.33;;;13.00;99.90;;;;;;5025251;28;20179;-85
2023/04/18 08:39:16;;;;;;;6.43;2.90;;;13.00;99.90;;;;;;5009604;28;20554;-84
2023/04/18 08:41:44;;;;;;;6.77;2.97;;;12.90;99.90;;;;;;5010153;28;20223;-84
2023/04/18 08:44:11;;;;;;;2.67;2.10;;;13.20;99.90;;;;;;5025507;28;20239;-85
2023/04/18 08:46:37;;;;;;;3.20;2.47;;;13.30;99.90;;;;;;5009411;28;20211;-83
2023/04/18 08:49:03;;;;;;;3.13;2.17;;;13.30;99.90;;;;;;5025605;28;20223;-84
2023/04/18 08:51:31;;;;;;;5.57;3.67;;;13.50;99.90;;;;;;5025997;28;20261;-83
2023/04/18 08:54:07;;;;;;;4.10;2.20;;;13.50;99.90;;;;;;5025491;28;20814;-83
2023/04/18 08:56:36;;;;;;;3.80;3.40;;;13.30;99.90;;;;;;5010276;28;20814;-83
2023/04/18 08:59:02;;;;;;;4.57;4.10;;;13.60;99.90;;;;;;5025353;28;20225;-83
2023/04/18 09:02:00;;;;;;;5.20;3.77;;;13.40;99.90;;;;;;5025164;28;20707;-86
2023/04/18 09:04:39;;;;;;;2.67;2.00;;;13.50;99.90;;;;;;5010282;28;20211;-83
2023/04/18 09:07:13;;;;;;;3.27;3.07;;;13.70;99.90;;;;;;5025165;28;20226;-84
2023/04/18 09:09:49;;;;;;;4.13;2.83;;;13.40;99.90;;;;;;5026084;28;20525;-84
2023/04/18 09:12:22;;;;;;;6.20;3.20;;;13.30;99.90;;;;;;5009225;28;20210;-84
2023/04/18 09:14:50;;;;;;;5.23;3.30;;;13.40;99.90;;;;;;5024623;28;20485;-83
2023/04/18 09:17:37;;;;;;;3.43;3.13;;;13.40;99.90;;;;;;5024870;28;20226;-86
2023/04/18 09:20:10;;;;;;;4.37;3.90;;;13.80;99.90;;;;;;5009561;28;20676;-83
2023/04/18 09:22:56;;;;;;;5.57;3.30;;;13.80;99.90;;;;;;5024664;28;20227;-82
2023/04/18 09:25:34;;;;;;;9.20;3.77;;;14.00;99.90;;;;;;5010154;28;20227;-83
2023/04/18 09:28:05;;;;;;;4.80;3.43;;;13.90;99.90;;;;;;5009759;28;20175;-81
2023/04/18 09:30:36;;;;;;;4.20;3.60;;;13.80;99.90;;;;;;5024568;28;20235;-84
2023/04/18 09:33:04;;;;;;;3.40;2.60;;;13.80;99.90;;;;;;5009553;28;20226;-85
2023/04/18 09:35:30;;;;;;;15.07;3.27;;;13.70;99.90;;;;;;5009479;28;20222;-86
2023/04/18 09:37:56;;;;;;;4.07;2.67;;;13.70;99.90;;;;;;5009203;28;20265;-84
2023/04/18 09:40:22;;;;;;;8.57;3.23;;;13.40;99.90;;;;;;5024410;28;20218;-83
2023/04/18 09:42:52;;;;;;;6.83;3.17;;;13.90;99.90;;;;;;5024069;28;20186;-84
2023/04/18 09:45:18;;;;;;;4.47;3.83;;;13.70;99.90;;;;;;5025307;28;20183;-85
2023/04/18 09:47:43;;;;;;;14.00;3.57;;;13.60;99.90;;;;;;5024114;28;20831;-83
2023/04/18 09:50:09;;;;;;;3.17;2.80;;;13.70;99.90;;;;;;5023897;28;20576;-86
2023/04/18 09:52:40;;;;;;;2.43;2.20;;;13.90;99.90;;;;;;5008890;28;20280;-83
2023/04/18 09:55:08;;;;;;;4.70;3.53;;;13.90;99.90;;;;;;5008893;28;20273;-82
2023/04/18 09:57:35;;;;;;;5.10;3.63;;;13.90;99.90;;;;;;5024923;28;20280;-82
2023/04/18 10:00:19;;;;;;;3.90;3.17;;;13.80;99.90;;;;;;5013221;28;20223;-82
2023/04/18 10:03:07;;;;;;;3.83;3.17;;;13.90;99.90;;;;;;5013050;28;20250;-82
2023/04/18 10:05:35;;;;;;;3.90;3.27;;;13.50;99.90;;;;;;5012926;28;20219;-83
2023/04/18 10:08:01;;;;;;;5.97;3.83;;;13.50;99.90;;;;;;5028250;28;20218;-82
2023/04/18 10:10:28;;;;;;;2.90;2.70;;;13.50;99.90;;;;;;5012100;28;20318;-83
2023/04/18 10:12:56;;;;;;;4.10;2.97;;;13.80;99.90;;;;;;5026559;28;20171;-85
2023/04/18 10:15:24;;;;;;;4.30;2.67;;;13.50;99.90;;;;;;5027080;28;20581;-83
2023/04/18 10:17:55;;;;;;;8.03;2.87;;;13.50;99.90;;;;;;5011421;28;20210;-83
2023/04/18 10:20:40;;;;;;;4.07;3.63;;;13.70;99.90;;;;;;5026606;28;20222;-82
2023/04/18 10:23:31;;;;;;;4.10;2.77;;;13.50;99.90;;;;;;5011290;28;20431;-84
2023/04/18 10:25:57;;;;;;;3.03;2.73;;;13.20;99.90;;;;;;5011322;28;20250;-84
2023/04/18 10:28:25;;;;;;;4.13;3.83;;;13.10;99.90;;;;;;5011237;28;20768;-82
2023/04/18 10:31:04;;;;;;;3.87;3.10;;;13.40;99.90;;;;;;5010684;28;20476;-82
2023/04/18 10:33:37;;;;;;;8.40;4.40;;;13.50;99.90;;;;;;5012987;28;20663;-83
2023/04/18 10:36:09;;;;;;;4.77;3.57;;;13.40;99.90;;;;;;5027409;28;20215;-81
2023/04/18 10:38:43;;;;;;;3.13;2.33;;;13.60;99.90;;;;;;5012439;28;20246;-82
2023/04/18 10:41:27;;;;;;;4.10;3.37;;;13.30;99.90;;;;;;5012199;28;20712;-82
2023/04/18 10:44:08;;;;;;;2.90;2.50;;;13.20;99.90;;;;;;5012011;28;20223;-82
2023/04/18 10:46:35;;;;;;;4.87;2.80;;;13.30;99.90;;;;;;5011978;28;20219;-82
2023/04/18 10:49:23;;;;;;;6.57;4.10;;;13.60;99.90;;;;;;5027061;28;20842;-82
2023/04/18 10:52:00;;;;;;;4.40;2.80;;;13.70;99.90;;;;;;5009737;28;20712;-83
2023/04/18 10:54:53;;;;;;;7.97;3.23;;;13.50;99.90;;;;;;5011026;28;20221;-84
2023/04/18 10:57:19;;;;;;;1.93;1.60;;;13.50;99.90;;;;;;5011521;28;20206;-82
2023/04/18 10:59:49;;;;;;;3.27;2.50;;;13.40;99.90;;;;;;5010458;28;20378;-86
2023/04/18 11:02:28;;;;;;;5.13;3.10;;;13.30;99.90;;;;;;5010398;28;20586;-85
2023/04/18 11:05:05;;;;;;;4.43;2.40;;;13.40;99.90;;;;;;5025526;28;20683;-83
2023/04/18 11:07:40;;;;;;;7.43;3.50;;;13.20;99.90;;;;;;5010436;28;20680;-82
2023/04/18 11:10:08;;;;;;;2.73;2.50;;;13.20;99.90;;;;;;5009289;28;20229;-84
2023/04/18 11:12:36;;;;;;;5.23;2.57;;;13.20;99.90;;;;;;5010771;28;20198;-86
2023/04/18 11:15:23;;;;;;;4.23;1.93;;;13.40;99.90;;;;;;5010771;28;20580;-81
2023/04/18 11:18:00;;;;;;;5.30;3.00;;;13.50;99.90;;;;;;5011115;28;20269;-83
2023/04/18 11:20:27;;;;;;;6.73;3.10;;;13.30;99.90;;;;;;5011079;28;20226;-84
2023/04/18 11:22:55;;;;;;;3.27;2.57;;;13.50;99.90;;;;;;5026456;28;20222;-81
2023/04/18 11:25:35;;;;;;;3.20;2.93;;;13.40;99.90;;;;;;5025406;28;20223;-82
2023/04/18 11:28:03;;;;;;;2.53;2.33;;;13.40;99.90;;;;;;5010245;28;20183;-82
2023/04/18 11:30:41;;;;;;;3.17;1.97;;;13.10;99.90;;;;;;5025548;28;20211;-85
2023/04/18 11:33:08;;;;;;;3.00;2.80;;;12.90;99.90;;;;;;5025704;28;20234;-84
2023/04/18 11:35:38;;;;;;;2.60;2.27;;;13.20;99.90;;;;;;5010304;28;20226;-83
2023/04/18 11:38:05;;;;;;;10.30;2.30;;;13.50;99.90;;;;;;5010097;28;20238;-82
2023/04/18 11:40:31;;;;;;;2.27;1.43;;;13.40;99.90;;;;;;5009894;28;20223;-87
2023/04/18 11:43:00;;;;;;;2.10;1.80;;;13.30;99.90;;;;;;5025539;28;20234;-83
2023/04/18 11:45:26;;;;;;;1.63;1.47;;;13.20;99.90;;;;;;5026020;28;20175;-82
2023/04/18 11:47:58;;;;;;;1.50;1.40;;;13.20;99.90;;;;;;5024979;28;20219;-84
2023/04/18 11:50:24;;;;;;;3.73;2.17;;;13.40;99.90;;;;;;5010225;28;20649;-83
2023/04/18 11:52:52;;;;;;;2.57;2.33;;;13.30;99.90;;;;;;5010266;28;20306;-86
2023/04/18 11:55:23;;;;;;;2.30;1.77;;;13.40;99.90;;;;;;5025376;28;20246;-86
2023/04/18 11:57:57;;;;;;;3.57;2.30;;;13.30;99.90;;;;;;5009944;28;20168;-83
2023/04/18 12:00:49;;;;;;;1.23;1.10;;;13.20;99.90;;;;;;5010162;28;20180;-84
2023/04/18 12:03:16;;;;;;;7.07;3.73;;;12.80;99.90;;;;;;5007337;28;20218;-83
2023/04/18 12:05:42;;;;;;;5.07;3.67;;;13.00;99.90;;;;;;5024887;28;20226;-84
2023/04/18 12:08:10;;;;;;;3.30;2.53;;;13.20;99.90;;;;;;5009467;28;20606;-85
2023/04/18 12:10:36;;;;;;;2.93;2.60;;;13.00;99.90;;;;;;5009357;28;20239;-86
2023/04/18 12:13:06;;;;;;;1.67;1.27;;;12.60;99.90;;;;;;5009401;28;20708;-81
2023/04/18 12:15:32;;;;;;;3.93;2.93;;;12.20;99.90;;;;;;5010160;28;20266;-83
2023/04/18 12:18:00;;;;;;;4.73;3.53;;;12.30;99.90;;;;;;5024859;28;20639;-83
2023/04/18 12:20:44;;;;;;;6.90;3.07;;;12.50;99.90;;;;;;5024117;28;20230;-82
2023/04/18 12:23:28;;;;;;;3.43;3.23;;;12.40;99.90;;;;;;5009265;28;20219;-82
2023/04/18 12:26:02;;;;;;;3.43;2.50;;;12.30;99.90;;;;;;5009565;28;20246;-82
2023/04/18 12:28:29;;;;;;;3.53;1.70;;;12.40;99.90;;;;;;5009280;28;20242;-84
2023/04/18 12:30:55;;;;;;;3.03;2.73;;;12.40;99.90;;;;;;5008599;28;20242;-82
2023/04/18 12:33:21;;;;;;;8.70;2.80;;;12.40;99.90;;;;;;5024972;28;20550;-82
2023/04/18 12:35:47;;;;;;;4.13;2.37;;;12.40;99.90;;;;;;5009130;28;20310;-84
2023/04/18 12:38:13;;;;;;;3.40;3.00;;;12.70;99.90;;;;;;5024150;28;20215;-84
2023/04/18 12:40:39;;;;;;;3.00;2.80;;;12.60;99.90;;;;;;5024145;28;20736;-86
2023/04/18 12:43:06;;;;;;;4.63;3.20;;;12.40;99.90;;;;;;5024310;28;20296;-85
2023/04/18 12:45:32;;;;;;;3.20;2.40;;;12.40;99.90;;;;;;5024564;28;20175;-85
2023/04/18 12:47:58;;;;;;;2.77;1.97;;;12.50;99.90;;;;;;5024523;28;20211;-83
2023/04/18 12:50:25;;;;;;;2.63;2.43;;;12.60;99.90;;;;;;5024167;28;20692;-85
2023/04/18 12:52:53;;;;;;;3.73;3.13;;;12.50;99.90;;;;;;5009133;28;20676;-84
2023/04/18 12:55:20;;;;;;;3.77;2.80;;;12.70;99.90;;;;;;5008734;28;20669;-83